• Join FlightAware (Why Join?)
  • Login
  • US Flag 
01:52AM EST


 

Airport Tracker/Info


-or-


 

Live Flight TrackerFlight Track Log ✈ CPT7773 ✈ 11-Oct-2013 ✈ KCOD - KCPR

Flight Track Log - Related Links

Times and Time Zones

All times are in EDT time to prevent confusion due to time zone crossing. See the CPT7773 flight status page for this flight to view local times or setup timezone preferences in your user account.

Time Position Orientation Groundspeed Altitude Reporting Facility
EDT Latitude Longitude Course Direction KTS MPH feet Rate Location/Type
07:59PM 44.3697 -108.7631 134° Southeast 133 153 12,200  Level Salt Lake Center
08:00PM 44.3358 -108.7133 134° Southeast 149 171 12,100 -60 Descending Salt Lake Center
08:01PM 44.3006 -108.6564 131° Southeast 170 196 12,100  Level Salt Lake Center
08:02PM 44.2642 -108.5972 131° Southeast 186 214 12,100  Level Salt Lake Center
08:03PM 44.2219 -108.5303 131° Southeast 192 221 12,100  Level Salt Lake Center
08:04PM 44.1889 -108.4758 130° Southeast 190 219 12,100  Level Salt Lake Center
08:06PM 44.1289 -108.3786 131° Southeast 185 213 12,100  Level Denver Center
08:07PM 44.0961 -108.3244 130° Southeast 184 212 12,100  Level Denver Center
08:08PM 44.0633 -108.2708 130° Southeast 184 212 12,100  Level Denver Center
08:09PM 44.0225 -108.2072 132° Southeast 184 212 12,100  Level Denver Center
08:10PM 43.9892 -108.1522 130° Southeast 184 212 12,100  Level Denver Center
08:11PM 43.9550 -108.0981 131° Southeast 186 214 12,100  Level Denver Center
08:12PM 43.9203 -108.0450 132° Southeast 187 215 12,100  Level Denver Center
08:13PM 43.8861 -107.9894 130° Southeast 188 216 12,100  Level Denver Center
08:14PM 43.8539 -107.9372 131° Southeast 185 213 12,100  Level Denver Center
08:15PM 43.8122 -107.8733 132° Southeast 185 213 12,100  Level Denver Center
08:16PM 43.7789 -107.8203 131° Southeast 184 212 12,100  Level Denver Center
08:18PM 43.7372 -107.7583 133° Southeast 184 212 12,100  Level Salt Lake Center
08:19PM 43.7031 -107.7022 130° Southeast 187 215 12,100  Level Salt Lake Center
08:20PM 43.6703 -107.6486 130° Southeast 186 214 12,100  Level Salt Lake Center
08:21PM 43.6386 -107.5928 128° Southeast 185 213 12,100  Level Salt Lake Center
08:22PM 43.5969 -107.5289 132° Southeast 186 214 12,100  Level Salt Lake Center
08:23PM 43.5625 -107.4758 132° Southeast 187 215 12,100  Level Salt Lake Center
08:24PM 43.5294 -107.4222 130° Southeast 185 213 12,100  Level Salt Lake Center
08:25PM 43.4953 -107.3681 131° Southeast 186 214 12,100  Level Salt Lake Center
08:26PM 43.4597 -107.3144 132° Southeast 188 216 12,100  Level Salt Lake Center
08:27PM 43.4236 -107.2586 132° Southeast 192 221 12,100  Level Salt Lake Center
08:28PM 43.3825 -107.1942 131° Southeast 188 216 12,100  Level Salt Lake Center
08:29PM 43.3467 -107.1397 132° Southeast 190 219 12,100  Level Salt Lake Center
08:30PM 43.3153 -107.0889 130° Southeast 180 207 12,100  Level Salt Lake Center
08:31PM 43.2819 -107.0378 132° Southeast 179 206 12,100  Level Salt Lake Center
08:32PM 43.2494 -106.9872 131° Southeast 177 204 12,100  Level Salt Lake Center
08:33PM 43.2108 -106.9308 133° Southeast 179 206 12,100 -180 Level Salt Lake Center
08:34PM 43.1786 -106.8803 131° Southeast 182 209 11,800 -840 Descending Salt Lake Center
08:35PM 43.1328 -106.8158 134° Southeast 206 237 10,400 -1,020 Descending Salt Lake Center
08:36PM 43.1036 -106.7669 129° Southeast 208 239 10,000 -660 Descending Denver Center
08:37PM 43.0697 -106.7131 131° Southeast 201 231 9,200 -840 Descending Denver Center
08:38PM 43.0269 -106.6556 135° Southeast 195 224 8,300 -720 Descending Denver Center
08:39PM 42.9881 -106.6094 139° Southeast 193 222 7,800 -660 Descending Denver Center
08:40PM 42.9422 -106.5597 142° Southeast 190 219 7,000 -780 Descending Denver Center
08:42PM 42.9080 -106.4644 124° Southeast  Level Estimated